Flight Track Log - Related Links

Times and Time Zones

All times are in EST time to prevent confusion due to time zone crossing. See the ASQ6151 flight status page for this flight to view local times or setup timezone preferences in your user account.

Time Position Orientation Groundspeed Altitude Reporting Facility
EST Latitude Longitude Course Direction KTS MPH feet Rate Location/Type
Tue 05:23:35 PM 36.2392 -80.3036 311° West 269 310 11,700  Level Atlanta Center
Tue 05:24:00 PM 36.4244 -80.5154 302° West  Level FlightAware Approximate
Tue 05:24:35 PM 36.2981 -80.3908 310° West 295 339 12,900  Level Atlanta Center
Tue 05:25:00 PM 36.4748 -80.6163 302° West  Level FlightAware Approximate
Tue 05:25:35 PM 36.3525 -80.4683 311° West 331 381 14,300  Level Atlanta Center
Tue 05:26:00 PM 36.5330 -80.7105 307° West  Level FlightAware Approximate
Tue 05:26:35 PM 36.4158 -80.5611 310° West 344 396 15,800  Level Atlanta Center
Tue 05:27:00 PM 36.5828 -80.8086 308° West  Level FlightAware Approximate
Tue 05:27:35 PM 36.4767 -80.6514 310° West 344 396 17,200  Level Atlanta Center
Tue 05:28:35 PM 36.5375 -80.7392 311° West 344 396 18,500 1,400 Climbing Atlanta Center
Tue 05:29:35 PM 36.5961 -80.8272 310° West 344 396 20,000 1,450 Climbing Atlanta Center
Tue 05:30:35 PM 36.6547 -80.9181 309° West 344 396 21,400 1,400 Climbing Atlanta Center
Tue 05:31:35 PM 36.7114 -81.0142 306° West 338 389 22,800 1,450 Climbing Atlanta Center
Tue 05:32:35 PM 36.7700 -81.1156 306° West 338 389 24,300 1,400 Climbing Atlanta Center
Tue 05:33:35 PM 36.8264 -81.2044 308° West 331 381 25,600 1,168 Climbing Atlanta Center
Tue 05:35:45 PM 36.9478 -81.3961 308° West 333 383 28,000 1,094 Climbing Indianapolis Center
Tue 05:36:47 PM 37.0031 -81.4856 308° West 333 383 29,100 1,113 Climbing Indianapolis Center
Tue 05:37:49 PM 37.0633 -81.5844 307° West 333 383 30,300 919 Climbing Indianapolis Center
Tue 05:38:51 PM 37.1186 -81.6781 307° West 333 383 31,000 339 Climbing Indianapolis Center
Tue 05:39:53 PM 37.1875 -81.7931 307° West 346 398 31,000 484 Level Indianapolis Center
Tue 05:40:55 PM 37.2517 -81.8983 307° West 366 421 32,000 968 Climbing Indianapolis Center
Tue 05:41:57 PM 37.2994 -82.0081 299° West 363 418 33,000 968 Climbing Indianapolis Center
Tue 05:42:59 PM 37.3417 -82.1203 295° West 356 410 34,000 960 Climbing Indianapolis Center
Tue 05:44:02 PM 37.3811 -82.2297 294° West 353 406 35,000 960 Climbing Indianapolis Center
Tue 05:45:04 PM 37.4403 -82.3467 303° West 352 405 36,000 484 Climbing Indianapolis Center
Tue 05:46:06 PM 37.5014 -82.4442 308° West 352 405 36,000  Level Indianapolis Center
Tue 05:47:08 PM 37.5633 -82.5428 308° West 355 409 36,000  Level Indianapolis Center
Tue 05:48:10 PM 37.6250 -82.6414 308° West 356 410 36,000  Level Indianapolis Center
Tue 05:49:12 PM 37.6867 -82.7392 309° West 356 410 36,000  Level Indianapolis Center
Tue 05:50:14 PM 37.7589 -82.8539 309° West 356 410 36,000  Level Indianapolis Center
Tue 05:51:16 PM 37.8203 -82.9522 308° West 356 410 36,000  Level Indianapolis Center
Tue 05:52:18 PM 37.8811 -83.0508 308° West 356 410 36,000  Level Indianapolis Center
Tue 05:53:20 PM 37.9428 -83.1503 308° West 356 410 36,000  Level Indianapolis Center
Tue 05:54:22 PM 38.0031 -83.2489 308° West 356 410 36,000  Level Indianapolis Center
Tue 05:55:25 PM 38.0753 -83.3656 308° West 356 410 36,000  Level Indianapolis Center
Tue 05:56:27 PM 38.1381 -83.4656 309° West 357 411 36,000  Level Indianapolis Center
Tue 05:57:29 PM 38.2003 -83.5650 309° West 361 415 36,000  Level Indianapolis Center
Tue 05:58:31 PM 38.2628 -83.6667 308° West 361 415 36,000  Level Indianapolis Center
Tue 05:59:33 PM 38.3242 -83.7714 307° West 363 418 36,000  Level Indianapolis Center
Tue 06:00:35 PM 38.3972 -83.8894 308° West 363 418 36,000  Level Indianapolis Center
Tue 06:01:37 PM 38.4592 -83.9936 307° West 365 420 36,000  Level Indianapolis Center
Tue 06:02:39 PM 38.5225 -84.0969 308° West 366 421 36,000  Level Indianapolis Center
Tue 06:03:41 PM 38.5844 -84.2017 307° West 367 422 36,000  Level Indianapolis Center
Tue 06:04:43 PM 38.6564 -84.3172 309° West 367 422 36,000  Level Indianapolis Center
Tue 06:05:45 PM 38.7353 -84.4086 318° Northwest 375 432 36,000  Level Indianapolis Center
Tue 06:06:48 PM 38.8250 -84.4814 328° Northwest 380 437 36,000  Level Indianapolis Center
Tue 06:07:50 PM 38.9211 -84.5500 331° Northwest 391 450 36,000  Level Indianapolis Center
Tue 06:08:52 PM 39.0203 -84.6200 331° Northwest 400 460 36,000 -726 Level Indianapolis Center
Tue 06:09:54 PM 39.1161 -84.6881 331° Northwest 400 460 34,500 -1,645 Descending Indianapolis Center
Tue 06:10:56 PM 39.2111 -84.7539 332° Northwest 394 453 32,600 -1,935 Descending Indianapolis Center
Tue 06:11:58 PM 39.3272 -84.8375 331° Northwest 393 452 30,500 -1,887 Descending Indianapolis Center
Tue 06:13:00 PM 39.4294 -84.9086 332° Northwest 404 465 28,700 -1,210 Descending Indianapolis Center
Tue 06:14:02 PM 39.5308 -84.9811 331° Northwest 410 472 28,000 -339 Descending Indianapolis Center
Tue 06:15:04 PM 39.6322 -85.0542 331° Northwest 411 473 28,000  Level Indianapolis Center
Tue 06:16:06 PM 39.7336 -85.1258 331° Northwest 412 474 28,000  Level Indianapolis Center
Tue 06:17:08 PM 39.8350 -85.2003 331° Northwest 412 474 28,000  Level Indianapolis Center
Tue 06:18:11 PM 39.9575 -85.2883 331° Northwest 416 479 28,000  Level Indianapolis Center
Tue 06:19:13 PM 40.0606 -85.3619 331° Northwest 417 480 28,000 -435 Level Indianapolis Center
Tue 06:20:15 PM 40.1631 -85.4361 331° Northwest 418 481 27,100 -871 Descending Indianapolis Center
Tue 06:21:17 PM 40.2642 -85.5111 330° Northwest 418 481 26,200 -823 Descending Indianapolis Center
Tue 06:22:19 PM 40.3650 -85.5850 331° Northwest 418 481 25,400 -919 Descending Indianapolis Center
Tue 06:23:21 PM 40.4683 -85.6603 331° Northwest 418 481 24,300 -1,113 Descending Indianapolis Center
Tue 06:24:23 PM 40.5944 -85.7464 333° Northwest 425 489 23,100 -1,039 Descending Indianapolis Center
Tue 06:25:28 PM 40.6850 -85.8344 324° Northwest 409 471 22,100 -520 Descending Chicago Center
Tue 06:26:30 PM 40.7683 -85.9147 324° Northwest 395 455 22,000 -48 Descending Chicago Center
Tue 06:27:32 PM 40.8783 -86.0211 324° Northwest 405 466 22,000  Level Chicago Center
Tue 06:28:34 PM 40.9706 -86.1114 324° Northwest 410 472 22,000  Level Chicago Center
Tue 06:29:36 PM 41.0617 -86.2017 323° Northwest 408 470 22,000 -339 Level Chicago Center
Tue 06:30:38 PM 41.1525 -86.2897 324° Northwest 404 465 21,300 -1,200 Descending Chicago Center
Tue 06:31:41 PM 41.2389 -86.3769 323° Northwest 389 448 19,500 -1,872 Descending Chicago Center
Tue 06:32:43 PM 41.3231 -86.4608 323° Northwest 379 436 17,400 -2,177 Descending Chicago Center
Tue 06:33:45 PM 41.4247 -86.5614 323° Northwest 378 435 15,000 -2,129 Descending Chicago Center
Tue 06:34:47 PM 41.5067 -86.6431 323° Northwest 370 426 13,000 -1,452 Descending Chicago Center
Tue 06:35:49 PM 41.5789 -86.7147 323° Northwest 357 411 12,000 -435 Descending Chicago Center
Tue 06:36:51 PM 41.6650 -86.7947 325° Northwest 321 369 12,100 48 Climbing Chicago Center
Tue 06:37:53 PM 41.7611 -86.8078 354° North 342 394 12,100 -290 Level Chicago Center
Tue 06:38:55 PM 41.8542 -86.8281 351° North 341 392 11,500 -677 Descending Chicago Center
Tue 06:39:57 PM 41.9181 -86.9103 316° Northwest 326 375 10,700 -677 Descending Chicago Center
Tue 06:40:59 PM 41.9647 -87.0011 305° West 302 348 10,100 -387 Descending Chicago Center
Tue 06:42:01 PM 41.9817 -87.1003 283° West 275 316 9,900 -387 Descending Chicago Center
Tue 06:43:03 PM 41.9836 -87.2075 271° West 243 280 9,300 -435 Descending Chicago Center
Tue 06:44:05 PM 41.9831 -87.2975 270° West 242 278 9,000 -528 Descending Chicago Center
Tue 06:45:08 PM 41.9819 -87.3886 269° West 245 282 8,200 -960 Descending Chicago Center
Tue 06:46:10 PM 41.9833 -87.4769 271° West 239 275 7,000 -1,210 Descending Chicago Center
Tue 06:47:12 PM 41.9822 -87.5608 269° West 230 265 5,700 -1,333 Descending Chicago Center
Tue 06:48:07 PM 41.9833 -87.6500 271° West 207 238 4,400 -1,241 Descending Chicago TRACON
Tue 06:49:08 PM 41.9833 -87.7167 270° West 197 227 3,300 -1,041 Descending Chicago TRACON
Tue 06:50:08 PM 41.9833 -87.7833 270° West 163 188 2,300 -850 Descending Chicago TRACON
Tue 06:51:08 PM 41.9833 -87.8333 270° West 123 142 1,600 -700 Descending Chicago TRACON
Tue 06:52:08 PM 41.9833 -87.8833 270° West 132 152 900 -700 Descending Chicago TRACON
Tue 06:54:00 PM 41.9667 -87.9000 270° West  Level FlightAware Approximate

Login

Don't have an account? Register now (free) for customized features, flight alerts, and more!